sensor_id;sensor_type;location;lat;lon;timestamp;pressure;altitude;pressure_sealevel;temperature
70819;BMP280;58439;51.046;13.692;2023-02-01T00:01:13;99857.91;;;5.07
70819;BMP280;58439;51.046;13.692;2023-02-01T00:03:40;99863.72;;;5.10
70819;BMP280;58439;51.046;13.692;2023-02-01T00:06:07;99854.03;;;5.12
70819;BMP280;58439;51.046;13.692;2023-02-01T00:08:35;99854.84;;;5.20
70819;BMP280;58439;51.046;13.692;2023-02-01T00:11:05;99866.38;;;5.26
70819;BMP280;58439;51.046;13.692;2023-02-01T00:13:36;99862.97;;;5.33
70819;BMP280;58439;51.046;13.692;2023-02-01T00:16:17;99874.31;;;5.32
70819;BMP280;58439;51.046;13.692;2023-02-01T00:18:50;99869.13;;;5.32
70819;BMP280;58439;51.046;13.692;2023-02-01T00:21:20;99864.44;;;5.36
70819;BMP280;58439;51.046;13.692;2023-02-01T00:23:48;99871.88;;;5.23
70819;BMP280;58439;51.046;13.692;2023-02-01T00:26:22;99851.44;;;5.20
70819;BMP280;58439;51.046;13.692;2023-02-01T00:28:52;99876.13;;;5.40
70819;BMP280;58439;51.046;13.692;2023-02-01T00:31:19;99870.13;;;5.40
70819;BMP280;58439;51.046;13.692;2023-02-01T00:33:51;99859.91;;;5.46
70819;BMP280;58439;51.046;13.692;2023-02-01T00:36:18;99861.88;;;5.44
70819;BMP280;58439;51.046;13.692;2023-02-01T00:38:45;99860.25;;;5.43
70819;BMP280;58439;51.046;13.692;2023-02-01T00:41:19;99876.72;;;5.34
70819;BMP280;58439;51.046;13.692;2023-02-01T00:43:53;99878.38;;;5.35
70819;BMP280;58439;51.046;13.692;2023-02-01T00:46:20;99865.44;;;5.43
70819;BMP280;58439;51.046;13.692;2023-02-01T00:48:50;99869.47;;;5.38
70819;BMP280;58439;51.046;13.692;2023-02-01T00:51:23;99870.44;;;5.28
70819;BMP280;58439;51.046;13.692;2023-02-01T00:53:51;99865.72;;;5.32
70819;BMP280;58439;51.046;13.692;2023-02-01T00:56:19;99862.97;;;5.25
70819;BMP280;58439;51.046;13.692;2023-02-01T00:58:46;99868.00;;;5.27
70819;BMP280;58439;51.046;13.692;2023-02-01T01:01:23;99870.59;;;5.35
70819;BMP280;58439;51.046;13.692;2023-02-01T01:03:57;99884.03;;;5.30
70819;BMP280;58439;51.046;13.692;2023-02-01T01:06:32;99871.25;;;5.29
70819;BMP280;58439;51.046;13.692;2023-02-01T01:09:05;99875.63;;;5.28
70819;BMP280;58439;51.046;13.692;2023-02-01T01:11:36;99872.81;;;5.30
70819;BMP280;58439;51.046;13.692;2023-02-01T01:14:08;99882.38;;;5.21
70819;BMP280;58439;51.046;13.692;2023-02-01T01:16:36;99870.88;;;5.16
70819;BMP280;58439;51.046;13.692;2023-02-01T01:19:04;99862.44;;;5.14
70819;BMP280;58439;51.046;13.692;2023-02-01T01:21:32;99872.78;;;5.05
70819;BMP280;58439;51.046;13.692;2023-02-01T01:23:59;99874.75;;;5.03
70819;BMP280;58439;51.046;13.692;2023-02-01T01:26:29;99863.72;;;5.10
70819;BMP280;58439;51.046;13.692;2023-02-01T01:28:59;99857.25;;;5.14
70819;BMP280;58439;51.046;13.692;2023-02-01T01:31:28;99878.66;;;5.16
70819;BMP280;58439;51.046;13.692;2023-02-01T01:33:58;99867.44;;;4.99
70819;BMP280;58439;51.046;13.692;2023-02-01T01:36:28;99870.66;;;5.01
70819;BMP280;58439;51.046;13.692;2023-02-01T01:38:56;99855.41;;;4.98
70819;BMP280;58439;51.046;13.692;2023-02-01T01:41:28;99860.53;;;5.24
70819;BMP280;58439;51.046;13.692;2023-02-01T01:44:06;99845.75;;;5.08
70819;BMP280;58439;51.046;13.692;2023-02-01T01:46:37;99859.53;;;5.08
70819;BMP280;58439;51.046;13.692;2023-02-01T01:49:17;99870.19;;;5.14
70819;BMP280;58439;51.046;13.692;2023-02-01T01:51:55;99847.69;;;5.14
70819;BMP280;58439;51.046;13.692;2023-02-01T01:54:29;99859.22;;;5.12
70819;BMP280;58439;51.046;13.692;2023-02-01T01:57:07;99849.63;;;5.12
70819;BMP280;58439;51.046;13.692;2023-02-01T01:59:38;99854.00;;;5.03
70819;BMP280;58439;51.046;13.692;2023-02-01T02:02:07;99848.16;;;5.01
70819;BMP280;58439;51.046;13.692;2023-02-01T02:04:36;99848.78;;;4.95
70819;BMP280;58439;51.046;13.692;2023-02-01T02:07:10;99852.00;;;4.89
70819;BMP280;58439;51.046;13.692;2023-02-01T02:09:39;99842.31;;;4.99
70819;BMP280;58439;51.046;13.692;2023-02-01T02:12:13;99852.69;;;4.99
70819;BMP280;58439;51.046;13.692;2023-02-01T02:14:41;99842.44;;;4.90
70819;BMP280;58439;51.046;13.692;2023-02-01T02:17:30;99833.56;;;4.92
70819;BMP280;58439;51.046;13.692;2023-02-01T02:26:31;99835.19;;;5.01
70819;BMP280;58439;51.046;13.692;2023-02-01T02:32:47;99834.41;;;5.09
70819;BMP280;58439;51.046;13.692;2023-02-01T02:35:53;99823.25;;;5.08
70819;BMP280;58439;51.046;13.692;2023-02-01T02:38:57;99827.44;;;5.10
70819;BMP280;58439;51.046;13.692;2023-02-01T02:48:12;99816.75;;;5.13
70819;BMP280;58439;51.046;13.692;2023-02-01T02:53:48;99821.63;;;5.07
70819;BMP280;58439;51.046;13.692;2023-02-01T02:56:38;99823.25;;;5.08
70819;BMP280;58439;51.046;13.692;2023-02-01T02:59:30;99826.31;;;5.12
70819;BMP280;58439;51.046;13.692;2023-02-01T03:02:17;99813.53;;;5.11
70819;BMP280;58439;51.046;13.692;2023-02-01T03:05:05;99820.13;;;5.05
70819;BMP280;58439;51.046;13.692;2023-02-01T03:08:03;99832.47;;;5.03
70819;BMP280;58439;51.046;13.692;2023-02-01T03:13:55;99824.22;;;5.07
70819;BMP280;58439;51.046;13.692;2023-02-01T03:16:41;99830.50;;;5.05
70819;BMP280;58439;51.046;13.692;2023-02-01T03:19:40;99840.66;;;4.98
70819;BMP280;58439;51.046;13.692;2023-02-01T03:22:15;99834.53;;;4.99
70819;BMP280;58439;51.046;13.692;2023-02-01T03:24:58;99841.69;;;5.05
70819;BMP280;58439;51.046;13.692;2023-02-01T03:28:00;99835.06;;;5.03
70819;BMP280;58439;51.046;13.692;2023-02-01T03:30:35;99815.28;;;5.10
70819;BMP280;58439;51.046;13.692;2023-02-01T03:33:18;99831.19;;;5.15
70819;BMP280;58439;51.046;13.692;2023-02-01T03:35:57;99830.72;;;5.12
70819;BMP280;58439;51.046;13.692;2023-02-01T03:38:33;99820.34;;;5.12
70819;BMP280;58439;51.046;13.692;2023-02-01T03:41:33;99821.94;;;5.13
70819;BMP280;58439;51.046;13.692;2023-02-01T03:44:29;99803.31;;;5.09
70819;BMP280;58439;51.046;13.692;2023-02-01T03:47:25;99806.19;;;5.14
70819;BMP280;58439;51.046;13.692;2023-02-01T03:50:05;99818.72;;;5.19
70819;BMP280;58439;51.046;13.692;2023-02-01T03:52:52;99824.25;;;5.24
70819;BMP280;58439;51.046;13.692;2023-02-01T03:55:23;99813.56;;;5.27
70819;BMP280;58439;51.046;13.692;2023-02-01T03:58:01;99807.69;;;5.33
70819;BMP280;58439;51.046;13.692;2023-02-01T04:00:29;99802.00;;;5.29
70819;BMP280;58439;51.046;13.692;2023-02-01T04:02:59;99804.13;;;5.34
70819;BMP280;58439;51.046;13.692;2023-02-01T04:05:26;99791.16;;;5.34
70819;BMP280;58439;51.046;13.692;2023-02-01T04:08:03;99790.53;;;5.32
70819;BMP280;58439;51.046;13.692;2023-02-01T04:10:32;99798.94;;;5.34
70819;BMP280;58439;51.046;13.692;2023-02-01T04:12:59;99788.75;;;5.32
70819;BMP280;58439;51.046;13.692;2023-02-01T04:15:27;99793.44;;;5.37
70819;BMP280;58439;51.046;13.692;2023-02-01T04:17:54;99779.50;;;5.38
70819;BMP280;58439;51.046;13.692;2023-02-01T04:20:21;99784.88;;;5.45
70819;BMP280;58439;51.046;13.692;2023-02-01T04:22:49;99785.03;;;5.51
70819;BMP280;58439;51.046;13.692;2023-02-01T04:25:16;99783.72;;;5.47
70819;BMP280;58439;51.046;13.692;2023-02-01T04:27:46;99777.41;;;5.42
70819;BMP280;58439;51.046;13.692;2023-02-01T04:30:14;99783.06;;;5.37
70819;BMP280;58439;51.046;13.692;2023-02-01T04:32:41;99784.56;;;5.40
70819;BMP280;58439;51.046;13.692;2023-02-01T04:35:09;99777.25;;;5.35
70819;BMP280;58439;51.046;13.692;2023-02-01T04:37:36;99773.34;;;5.31
70819;BMP280;58439;51.046;13.692;2023-02-01T04:40:04;99779.84;;;5.27
70819;BMP280;58439;51.046;13.692;2023-02-01T04:42:32;99769.63;;;5.25
70819;BMP280;58439;51.046;13.692;2023-02-01T04:44:59;99774.81;;;5.25
70819;BMP280;58439;51.046;13.692;2023-02-01T04:47:26;99766.53;;;5.30
70819;BMP280;58439;51.046;13.692;2023-02-01T04:49:53;99771.09;;;5.36
70819;BMP280;58439;51.046;13.692;2023-02-01T04:52:20;99754.41;;;5.30
70819;BMP280;58439;51.046;13.692;2023-02-01T04:54:50;99753.25;;;5.25
70819;BMP280;58439;51.046;13.692;2023-02-01T04:57:17;99740.16;;;5.26
70819;BMP280;58439;51.046;13.692;2023-02-01T04:59:45;99762.81;;;5.24
70819;BMP280;58439;51.046;13.692;2023-02-01T05:02:12;99740.63;;;5.22
70819;BMP280;58439;51.046;13.692;2023-02-01T05:04:39;99746.78;;;5.29
70819;BMP280;58439;51.046;13.692;2023-02-01T05:07:06;99714.53;;;5.31
70819;BMP280;58439;51.046;13.692;2023-02-01T05:09:34;99721.34;;;5.24
70819;BMP280;58439;51.046;13.692;2023-02-01T05:12:01;99719.06;;;5.21
70819;BMP280;58439;51.046;13.692;2023-02-01T05:14:46;99711.78;;;5.25
70819;BMP280;58439;51.046;13.692;2023-02-01T05:17:14;99703.38;;;5.23
70819;BMP280;58439;51.046;13.692;2023-02-01T05:19:41;99708.56;;;5.23
70819;BMP280;58439;51.046;13.692;2023-02-01T05:22:08;99713.75;;;5.23
70819;BMP280;58439;51.046;13.692;2023-02-01T05:24:37;99708.06;;;5.27
70819;BMP280;58439;51.046;13.692;2023-02-01T05:27:04;99700.91;;;5.29
70819;BMP280;58439;51.046;13.692;2023-02-01T05:29:32;99691.72;;;5.27
70819;BMP280;58439;51.046;13.692;2023-02-01T05:31:59;99682.44;;;5.32
70819;BMP280;58439;51.046;13.692;2023-02-01T05:34:41;99688.59;;;5.40
70819;BMP280;58439;51.046;13.692;2023-02-01T05:37:08;99685.22;;;5.39
70819;BMP280;58439;51.046;13.692;2023-02-01T05:39:35;99694.78;;;5.39
70819;BMP280;58439;51.046;13.692;2023-02-01T05:42:03;99702.19;;;5.33
70819;BMP280;58439;51.046;13.692;2023-02-01T05:44:31;99703.69;;;5.36
70819;BMP280;58439;51.046;13.692;2023-02-01T05:46:58;99697.69;;;5.36
70819;BMP280;58439;51.046;13.692;2023-02-01T05:49:25;99704.47;;;5.37
70819;BMP280;58439;51.046;13.692;2023-02-01T05:51:52;99703.88;;;5.26
70819;BMP280;58439;51.046;13.692;2023-02-01T05:54:19;99713.56;;;5.32
70819;BMP280;58439;51.046;13.692;2023-02-01T05:56:46;99715.34;;;5.40
70819;BMP280;58439;51.046;13.692;2023-02-01T05:59:13;99705.28;;;5.45
70819;BMP280;58439;51.046;13.692;2023-02-01T06:01:40;99702.88;;;5.44
70819;BMP280;58439;51.046;13.692;2023-02-01T06:04:08;99689.09;;;5.43
70819;BMP280;58439;51.046;13.692;2023-02-01T06:06:35;99704.97;;;5.40
70819;BMP280;58439;51.046;13.692;2023-02-01T06:09:04;99685.53;;;5.36
70819;BMP280;58439;51.046;13.692;2023-02-01T06:11:31;99701.06;;;5.36
70819;BMP280;58439;51.046;13.692;2023-02-01T06:13:59;99698.97;;;5.40
70819;BMP280;58439;51.046;13.692;2023-02-01T06:16:27;99710.81;;;5.42
70819;BMP280;58439;51.046;13.692;2023-02-01T06:18:54;99707.25;;;5.43
70819;BMP280;58439;51.046;13.692;2023-02-01T06:21:22;99703.19;;;5.41
70819;BMP280;58439;51.046;13.692;2023-02-01T06:23:55;99699.59;;;5.42
70819;BMP280;58439;51.046;13.692;2023-02-01T06:26:27;99697.19;;;5.40
70819;BMP280;58439;51.046;13.692;2023-02-01T06:28:56;99695.91;;;5.44
70819;BMP280;58439;51.046;13.692;2023-02-01T06:31:23;99700.44;;;5.42
70819;BMP280;58439;51.046;13.692;2023-02-01T06:33:51;99692.50;;;5.44
70819;BMP280;58439;51.046;13.692;2023-02-01T06:36:20;99700.44;;;5.42
70819;BMP280;58439;51.046;13.692;2023-02-01T06:38:48;99707.25;;;5.43
70819;BMP280;58439;51.046;13.692;2023-02-01T06:41:17;99704.78;;;5.50
70819;BMP280;58439;51.046;13.692;2023-02-01T06:43:44;99687.44;;;5.34
70819;BMP280;58439;51.046;13.692;2023-02-01T06:46:13;99699.13;;;5.22
70819;BMP280;58439;51.046;13.692;2023-02-01T06:48:41;99698.31;;;5.13
70819;BMP280;58439;51.046;13.692;2023-02-01T06:51:24;99693.16;;;5.05
70819;BMP280;58439;51.046;13.692;2023-02-01T06:53:51;99688.78;;;5.05
70819;BMP280;58439;51.046;13.692;2023-02-01T06:56:19;99681.78;;;5.14
70819;BMP280;58439;51.046;13.692;2023-02-01T06:58:47;99688.44;;;5.17
70819;BMP280;58439;51.046;13.692;2023-02-01T07:01:16;99672.88;;;5.41
70819;BMP280;58439;51.046;13.692;2023-02-01T07:03:48;99678.22;;;5.40
70819;BMP280;58439;51.046;13.692;2023-02-01T07:06:16;99679.50;;;5.52
70819;BMP280;58439;51.046;13.692;2023-02-01T07:08:43;99683.22;;;5.49
70819;BMP280;58439;51.046;13.692;2023-02-01T07:11:14;99673.38;;;5.37
70819;BMP280;58439;51.046;13.692;2023-02-01T07:13:42;99666.41;;;5.13
70819;BMP280;58439;51.046;13.692;2023-02-01T07:16:18;99670.63;;;4.97
70819;BMP280;58439;51.046;13.692;2023-02-01T07:18:46;99681.94;;;4.80
70819;BMP280;58439;51.046;13.692;2023-02-01T07:21:13;99670.78;;;4.63
70819;BMP280;58439;51.046;13.692;2023-02-01T07:23:41;99676.09;;;4.53
70819;BMP280;58439;51.046;13.692;2023-02-01T07:26:13;99671.19;;;4.34
70819;BMP280;58439;51.046;13.692;2023-02-01T07:28:41;99666.28;;;4.23
70819;BMP280;58439;51.046;13.692;2023-02-01T07:31:17;99657.81;;;4.04
70819;BMP280;58439;51.046;13.692;2023-02-01T07:33:48;99663.28;;;3.93
70819;BMP280;58439;51.046;13.692;2023-02-01T07:36:19;99662.53;;;3.83
70819;BMP280;58439;51.046;13.692;2023-02-01T07:38:46;99655.59;;;3.84
70819;BMP280;58439;51.046;13.692;2023-02-01T07:41:22;99654.47;;;4.12
70819;BMP280;58439;51.046;13.692;2023-02-01T07:43:53;99645.72;;;4.13
70819;BMP280;58439;51.046;13.692;2023-02-01T07:46:23;99648.16;;;4.23
70819;BMP280;58439;51.046;13.692;2023-02-01T07:48:50;99635.06;;;4.16
70819;BMP280;58439;51.046;13.692;2023-02-01T07:51:17;99647.22;;;4.24
70819;BMP280;58439;51.046;13.692;2023-02-01T07:53:45;99641.88;;;4.25
70819;BMP280;58439;51.046;13.692;2023-02-01T07:56:19;99644.31;;;4.35
70819;BMP280;58439;51.046;13.692;2023-02-01T07:58:53;99637.69;;;4.33
70819;BMP280;58439;51.046;13.692;2023-02-01T08:01:25;99635.53;;;4.20
70819;BMP280;58439;51.046;13.692;2023-02-01T08:04:01;99640.84;;;4.18
70819;BMP280;58439;51.046;13.692;2023-02-01T08:06:33;99627.16;;;4.26
70819;BMP280;58439;51.046;13.692;2023-02-01T08:09:06;99635.88;;;4.25
70819;BMP280;58439;51.046;13.692;2023-02-01T08:11:35;99631.16;;;4.12
70819;BMP280;58439;51.046;13.692;2023-02-01T08:14:05;99634.41;;;4.14
70819;BMP280;58439;51.046;13.692;2023-02-01T08:16:36;99634.06;;;4.09
70819;BMP280;58439;51.046;13.692;2023-02-01T08:19:04;99630.66;;;4.09
70819;BMP280;58439;51.046;13.692;2023-02-01T08:21:33;99624.81;;;4.07
70819;BMP280;58439;51.046;13.692;2023-02-01T08:24:07;99619.31;;;4.01
70819;BMP280;58439;51.046;13.692;2023-02-01T08:26:35;99627.56;;;3.97
70819;BMP280;58439;51.046;13.692;2023-02-01T08:29:06;99610.44;;;3.96
70819;BMP280;58439;51.046;13.692;2023-02-01T08:31:38;99613.63;;;3.98
70819;BMP280;58439;51.046;13.692;2023-02-01T08:34:14;99605.69;;;3.99
70819;BMP280;58439;51.046;13.692;2023-02-01T08:36:45;99589.72;;;4.04
70819;BMP280;58439;51.046;13.692;2023-02-01T08:39:13;99589.25;;;4.09
70819;BMP280;58439;51.046;13.692;2023-02-01T08:41:40;99592.50;;;4.19
70819;BMP280;58439;51.046;13.692;2023-02-01T08:44:13;99591.88;;;4.25
70819;BMP280;58439;51.046;13.692;2023-02-01T08:46:41;99609.06;;;4.34
70819;BMP280;58439;51.046;13.692;2023-02-01T08:49:08;99591.59;;;4.44
70819;BMP280;58439;51.046;13.692;2023-02-01T08:51:36;99598.09;;;4.57
70819;BMP280;58439;51.046;13.692;2023-02-01T08:54:03;99586.75;;;4.74
70819;BMP280;58439;51.046;13.692;2023-02-01T08:56:39;99597.25;;;4.97
70819;BMP280;58439;51.046;13.692;2023-02-01T08:59:07;99578.00;;;5.07
70819;BMP280;58439;51.046;13.692;2023-02-01T09:01:34;99588.81;;;5.19
70819;BMP280;58439;51.046;13.692;2023-02-01T09:04:01;99593.47;;;5.32
70819;BMP280;58439;51.046;13.692;2023-02-01T09:06:28;99592.63;;;5.48
70819;BMP280;58439;51.046;13.692;2023-02-01T09:08:56;99574.44;;;5.56
70819;BMP280;58439;51.046;13.692;2023-02-01T09:11:25;99587.69;;;5.69
70819;BMP280;58439;51.046;13.692;2023-02-01T09:13:54;99599.66;;;5.78
70819;BMP280;58439;51.046;13.692;2023-02-01T09:16:21;99593.66;;;5.78
70819;BMP280;58439;51.046;13.692;2023-02-01T09:18:51;99600.59;;;5.77
70819;BMP280;58439;51.046;13.692;2023-02-01T09:21:35;99607.56;;;5.77
70819;BMP280;58439;51.046;13.692;2023-02-01T09:24:03;99598.84;;;5.70
70819;BMP280;58439;51.046;13.692;2023-02-01T09:26:31;99605.06;;;5.60
70819;BMP280;58439;51.046;13.692;2023-02-01T09:29:00;99612.28;;;5.42
70819;BMP280;58439;51.046;13.692;2023-02-01T09:31:30;99611.34;;;5.19
70819;BMP280;58439;51.046;13.692;2023-02-01T09:33:59;99610.03;;;4.98
70819;BMP280;58439;51.046;13.692;2023-02-01T09:36:28;99604.56;;;4.85
70819;BMP280;58439;51.046;13.692;2023-02-01T09:38:58;99600.66;;;4.81
70819;BMP280;58439;51.046;13.692;2023-02-01T09:42:01;99596.78;;;4.77
70819;BMP280;58439;51.046;13.692;2023-02-01T09:47:57;99624.91;;;4.39
70819;BMP280;58439;51.046;13.692;2023-02-01T09:50:40;99631.84;;;4.30
70819;BMP280;58439;51.046;13.692;2023-02-01T09:53:40;99625.19;;;4.12
70819;BMP280;58439;51.046;13.692;2023-02-01T09:56:35;99622.31;;;3.81
70819;BMP280;58439;51.046;13.692;2023-02-01T09:59:29;99628.22;;;3.65
70819;BMP280;58439;51.046;13.692;2023-02-01T10:02:03;99639.44;;;3.56
70819;BMP280;58439;51.046;13.692;2023-02-01T10:04:35;99656.44;;;3.58
70819;BMP280;58439;51.046;13.692;2023-02-01T10:10:18;99651.03;;;3.51
70819;BMP280;58439;51.046;13.692;2023-02-01T10:16:34;99673.81;;;3.48
70819;BMP280;58439;51.046;13.692;2023-02-01T10:22:40;99667.88;;;3.56
70819;BMP280;58439;51.046;13.692;2023-02-01T10:25:41;99656.28;;;3.60
70819;BMP280;58439;51.046;13.692;2023-02-01T10:28:15;99658.56;;;3.63
70819;BMP280;58439;51.046;13.692;2023-02-01T10:30:46;99656.53;;;3.74
70819;BMP280;58439;51.046;13.692;2023-02-01T10:33:30;99664.50;;;3.81
70819;BMP280;58439;51.046;13.692;2023-02-01T10:36:32;99650.00;;;3.88
70819;BMP280;58439;51.046;13.692;2023-02-01T10:39:13;99662.75;;;3.90
70819;BMP280;58439;51.046;13.692;2023-02-01T10:41:41;99658.41;;;3.98
70819;BMP280;58439;51.046;13.692;2023-02-01T10:44:21;99667.19;;;4.06
70819;BMP280;58439;51.046;13.692;2023-02-01T10:46:51;99676.09;;;4.11
70819;BMP280;58439;51.046;13.692;2023-02-01T10:49:45;99658.38;;;4.24
70819;BMP280;58439;51.046;13.692;2023-02-01T10:55:35;99674.19;;;4.72
70819;BMP280;58439;51.046;13.692;2023-02-01T10:58:17;99670.13;;;4.86
70819;BMP280;58439;51.046;13.692;2023-02-01T11:00:57;99679.88;;;4.75
70819;BMP280;58439;51.046;13.692;2023-02-01T11:03:38;99680.66;;;4.68
70819;BMP280;58439;51.046;13.692;2023-02-01T11:06:35;99667.06;;;4.74
70819;BMP280;58439;51.046;13.692;2023-02-01T11:11:57;99682.78;;;4.97
70819;BMP280;58439;51.046;13.692;2023-02-01T11:16:57;99648.47;;;5.11
70819;BMP280;58439;51.046;13.692;2023-02-01T11:19:28;99674.03;;;5.22
70819;BMP280;58439;51.046;13.692;2023-02-01T11:21:59;99655.41;;;5.19
70819;BMP280;58439;51.046;13.692;2023-02-01T11:24:34;99677.59;;;5.21
70819;BMP280;58439;51.046;13.692;2023-02-01T11:27:12;99673.03;;;5.40
70819;BMP280;58439;51.046;13.692;2023-02-01T11:30:01;99668.09;;;5.61
70819;BMP280;58439;51.046;13.692;2023-02-01T11:32:34;99683.16;;;5.82
70819;BMP280;58439;51.046;13.692;2023-02-01T11:35:05;99667.72;;;5.89
70819;BMP280;58439;51.046;13.692;2023-02-01T11:37:42;99662.00;;;5.93
70819;BMP280;58439;51.046;13.692;2023-02-01T11:43:22;99651.03;;;5.91
70819;BMP280;58439;51.046;13.692;2023-02-01T11:45:59;99653.47;;;5.84
70819;BMP280;58439;51.046;13.692;2023-02-01T11:48:31;99653.09;;;5.96
70819;BMP280;58439;51.046;13.692;2023-02-01T11:54:21;99647.06;;;6.03
70819;BMP280;58439;51.046;13.692;2023-02-01T11:57:14;99646.84;;;5.82
70819;BMP280;58439;51.046;13.692;2023-02-01T12:06:21;99632.81;;;5.60
70819;BMP280;58439;51.046;13.692;2023-02-01T12:09:19;99624.97;;;5.68
70819;BMP280;58439;51.046;13.692;2023-02-01T12:12:23;99628.31;;;5.85
70819;BMP280;58439;51.046;13.692;2023-02-01T12:15:34;99632.06;;;5.91
70819;BMP280;58439;51.046;13.692;2023-02-01T12:18:33;99633.19;;;5.88
70819;BMP280;58439;51.046;13.692;2023-02-01T12:21:44;99625.56;;;5.86
70819;BMP280;58439;51.046;13.692;2023-02-01T12:24:37;99619.41;;;5.88
70819;BMP280;58439;51.046;13.692;2023-02-01T12:27:59;99617.88;;;5.93
70819;BMP280;58439;51.046;13.692;2023-02-01T12:31:15;99620.16;;;5.96
70819;BMP280;58439;51.046;13.692;2023-02-01T12:34:19;99618.72;;;5.94
70819;BMP280;58439;51.046;13.692;2023-02-01T12:46:19;99613.28;;;6.34
70819;BMP280;58439;51.046;13.692;2023-02-01T12:49:41;99618.03;;;6.31
70819;BMP280;58439;51.046;13.692;2023-02-01T12:52:09;99615.66;;;6.44
70819;BMP280;58439;51.046;13.692;2023-02-01T12:54:50;99621.66;;;6.45
70819;BMP280;58439;51.046;13.692;2023-02-01T12:57:32;99621.16;;;6.49
70819;BMP280;58439;51.046;13.692;2023-02-01T13:00:40;99622.53;;;6.60
70819;BMP280;58439;51.046;13.692;2023-02-01T13:03:39;99606.88;;;6.68
70819;BMP280;58439;51.046;13.692;2023-02-01T13:06:19;99607.66;;;6.69
70819;BMP280;58439;51.046;13.692;2023-02-01T13:09:04;99604.78;;;6.63
70819;BMP280;58439;51.046;13.692;2023-02-01T13:11:41;99613.94;;;6.59
70819;BMP280;58439;51.046;13.692;2023-02-01T13:14:33;99611.25;;;6.68
70819;BMP280;58439;51.046;13.692;2023-02-01T13:17:18;99605.91;;;6.84
70819;BMP280;58439;51.046;13.692;2023-02-01T13:23:26;99597.13;;;7.00
70819;BMP280;58439;51.046;13.692;2023-02-01T13:25:59;99599.75;;;7.00
70819;BMP280;58439;51.046;13.692;2023-02-01T13:43:23;99571.28;;;7.21
70819;BMP280;58439;51.046;13.692;2023-02-01T13:46:04;99569.03;;;7.18
70819;BMP280;58439;51.046;13.692;2023-02-01T13:49:01;99567.94;;;7.12
70819;BMP280;58439;51.046;13.692;2023-02-01T13:51:41;99566.75;;;7.15
70819;BMP280;58439;51.046;13.692;2023-02-01T13:54:28;99556.75;;;7.12
70819;BMP280;58439;51.046;13.692;2023-02-01T13:56:58;99560.88;;;7.06
70819;BMP280;58439;51.046;13.692;2023-02-01T13:59:50;99560.53;;;7.09
70819;BMP280;58439;51.046;13.692;2023-02-01T14:10:55;99567.22;;;7.18
70819;BMP280;58439;51.046;13.692;2023-02-01T14:13:38;99562.38;;;7.15
70819;BMP280;58439;51.046;13.692;2023-02-01T14:23:58;99553.41;;;7.03
70819;BMP280;58439;51.046;13.692;2023-02-01T14:26:46;99546.34;;;7.12
70819;BMP280;58439;51.046;13.692;2023-02-01T14:32:22;99542.56;;;7.14
70819;BMP280;58439;51.046;13.692;2023-02-01T14:34:54;99545.91;;;7.08
70819;BMP280;58439;51.046;13.692;2023-02-01T14:37:32;99541.84;;;7.06
70819;BMP280;58439;51.046;13.692;2023-02-01T14:40:16;99523.75;;;6.98
70819;BMP280;58439;51.046;13.692;2023-02-01T14:42:50;99529.84;;;6.90
70819;BMP280;58439;51.046;13.692;2023-02-01T14:50:49;99532.59;;;6.74
70819;BMP280;58439;51.046;13.692;2023-02-01T14:53:34;99532.59;;;6.74
70819;BMP280;58439;51.046;13.692;2023-02-01T15:01:32;99545.16;;;6.70
70819;BMP280;58439;51.046;13.692;2023-02-01T15:04:10;99528.28;;;6.66
70819;BMP280;58439;51.046;13.692;2023-02-01T15:09:30;99526.59;;;6.58
70819;BMP280;58439;51.046;13.692;2023-02-01T15:14:43;99517.97;;;6.58
70819;BMP280;58439;51.046;13.692;2023-02-01T15:17:27;99519.47;;;6.52
70819;BMP280;58439;51.046;13.692;2023-02-01T15:20:13;99524.47;;;6.16
70819;BMP280;58439;51.046;13.692;2023-02-01T15:23:04;99516.78;;;5.77
70819;BMP280;58439;51.046;13.692;2023-02-01T15:25:36;99522.75;;;5.54
70819;BMP280;58439;51.046;13.692;2023-02-01T15:28:05;99514.44;;;5.28
70819;BMP280;58439;51.046;13.692;2023-02-01T15:30:35;99491.13;;;5.20
70819;BMP280;58439;51.046;13.692;2023-02-01T15:33:21;99505.06;;;5.19
70819;BMP280;58439;51.046;13.692;2023-02-01T15:36:06;99480.09;;;5.18
70819;BMP280;58439;51.046;13.692;2023-02-01T15:38:38;99467.94;;;5.18
70819;BMP280;58439;51.046;13.692;2023-02-01T15:41:11;99469.66;;;5.42
70819;BMP280;58439;51.046;13.692;2023-02-01T15:44:02;99456.03;;;5.40
70819;BMP280;58439;51.046;13.692;2023-02-01T15:46:42;99453.38;;;5.48
70819;BMP280;58439;51.046;13.692;2023-02-01T15:49:19;99447.19;;;5.57
70819;BMP280;58439;51.046;13.692;2023-02-01T15:51:50;99452.31;;;5.74
70819;BMP280;58439;51.046;13.692;2023-02-01T15:54:50;99456.94;;;5.78
70819;BMP280;58439;51.046;13.692;2023-02-01T15:57:34;99443.59;;;5.90
70819;BMP280;58439;51.046;13.692;2023-02-01T16:00:21;99445.66;;;5.94
70819;BMP280;58439;51.046;13.692;2023-02-01T16:03:03;99453.78;;;5.91
70819;BMP280;58439;51.046;13.692;2023-02-01T16:05:38;99462.28;;;5.77
70819;BMP280;58439;51.046;13.692;2023-02-01T16:08:16;99464.19;;;5.29
70819;BMP280;58439;51.046;13.692;2023-02-01T16:10:47;99448.13;;;4.94
70819;BMP280;58439;51.046;13.692;2023-02-01T16:13:20;99430.03;;;4.78
70819;BMP280;58439;51.046;13.692;2023-02-01T16:15:48;99433.31;;;4.64
70819;BMP280;58439;51.046;13.692;2023-02-01T16:18:15;99425.41;;;4.57
70819;BMP280;58439;51.046;13.692;2023-02-01T16:20:45;99403.72;;;4.58
70819;BMP280;58439;51.046;13.692;2023-02-01T16:23:13;99410.00;;;4.64
70819;BMP280;58439;51.046;13.692;2023-02-01T16:25:41;99395.41;;;4.71
70819;BMP280;58439;51.046;13.692;2023-02-01T16:28:20;99402.22;;;4.72
70819;BMP280;58439;51.046;13.692;2023-02-01T16:30:52;99397.69;;;4.66
70819;BMP280;58439;51.046;13.692;2023-02-01T16:33:21;99392.06;;;4.54
70819;BMP280;58439;51.046;13.692;2023-02-01T16:35:55;99398.72;;;4.40
70819;BMP280;58439;51.046;13.692;2023-02-01T16:38:26;99415.59;;;4.28
70819;BMP280;58439;51.046;13.692;2023-02-01T16:40:53;99438.69;;;4.21
70819;BMP280;58439;51.046;13.692;2023-02-01T16:43:23;99451.16;;;4.10
70819;BMP280;58439;51.046;13.692;2023-02-01T16:45:53;99444.03;;;4.03
70819;BMP280;58439;51.046;13.692;2023-02-01T16:48:29;99443.09;;;4.13
70819;BMP280;58439;51.046;13.692;2023-02-01T16:51:03;99453.09;;;4.08
70819;BMP280;58439;51.046;13.692;2023-02-01T16:53:34;99435.47;;;4.11
70819;BMP280;58439;51.046;13.692;2023-02-01T16:56:32;99455.03;;;4.06